Time;durP1;ratioP1;P1;durP2;ratioP2;P2;SDS_P1;SDS_P2;PMS_P1;PMS_P2;Temp;Humidity;BMP_temperature;BMP_pressure;BME280_temperature;BME280_humidity;BME280_pressure;Samples;Min_cycle;Max_cycle;Signal;HPM_P1;HPM_P2
2023/09/15 00:00:10;;;;;;;1.50;1.00;;;;;;;13.93;63.94;99246.78;4997849;28;41316;-80
2023/09/15 00:02:38;;;;;;;1.57;0.83;;;;;;;13.90;64.08;99252.31;4997983;28;40861;-81
2023/09/15 00:05:08;;;;;;;1.50;1.17;;;;;;;13.90;63.77;99248.81;5014643;28;41047;-81
2023/09/15 00:07:36;;;;;;;1.70;1.23;;;;;;;13.86;63.62;99249.97;5014184;28;42792;-83
2023/09/15 00:10:06;;;;;;;1.10;1.07;;;;;;;13.74;64.00;99225.06;4997750;28;41127;-82
2023/09/15 00:12:35;;;;;;;1.33;1.10;;;;;;;13.85;64.01;99248.25;5014265;28;39792;-80
2023/09/15 00:15:07;;;;;;;1.13;0.90;;;;;;;13.76;64.26;99232.94;4998856;28;40621;-79
2023/09/15 00:17:36;;;;;;;2.60;1.27;;;;;;;13.82;64.23;99238.69;4998744;28;41547;-80
2023/09/15 00:20:12;;;;;;;1.10;0.90;;;;;;;13.76;64.38;99239.09;5018139;28;41183;-79
2023/09/15 00:22:41;;;;;;;1.23;1.10;;;;;;;13.75;64.18;99242.72;5011416;28;40571;-79
2023/09/15 00:25:10;;;;;;;2.03;1.33;;;;;;;13.73;64.57;99241.97;5023074;28;40337;-82
2023/09/15 00:27:38;;;;;;;1.70;1.10;;;;;;;13.60;64.65;99222.50;4999526;28;41733;-82
2023/09/15 00:30:08;;;;;;;2.27;1.30;;;;;;;13.68;64.55;99241.47;4996860;28;41710;-81
2023/09/15 00:32:36;;;;;;;2.10;1.20;;;;;;;13.56;65.46;99221.00;5013622;28;40113;-79
2023/09/15 00:35:04;;;;;;;1.40;1.20;;;;;;;13.69;66.31;99231.66;5014275;28;42405;-80
2023/09/15 00:37:32;;;;;;;1.40;1.30;;;;;;;13.69;67.16;99227.19;5013592;28;42777;-81
2023/09/15 00:39:59;;;;;;;2.13;1.50;;;;;;;13.69;67.23;99227.19;5013589;28;42530;-80
2023/09/15 00:42:28;;;;;;;2.13;1.70;;;;;;;13.72;67.69;99227.00;5013544;28;39902;-81
2023/09/15 00:45:00;;;;;;;1.83;1.40;;;;;;;13.73;67.45;99236.66;5013903;28;42734;-83
2023/09/15 00:47:27;;;;;;;1.77;1.60;;;;;;;13.74;67.12;99230.38;5012375;28;42857;-81
2023/09/15 00:49:56;;;;;;;2.40;2.20;;;;;;;13.75;67.73;99232.06;5013636;28;42704;-81
2023/09/15 00:52:23;;;;;;;1.60;1.30;;;;;;;13.76;67.79;99233.78;5013550;28;41288;-82
2023/09/15 00:54:51;;;;;;;2.00;1.50;;;;;;;13.76;67.63;99233.78;5014106;28;42034;-79
2023/09/15 00:57:19;;;;;;;2.63;1.77;;;;;;;13.74;67.98;99222.38;5013177;28;41695;-81
2023/09/15 00:59:48;;;;;;;2.33;1.60;;;;;;;13.69;67.51;99226.34;5013681;28;43037;-80
2023/09/15 01:02:16;;;;;;;1.93;1.13;;;;;;;13.71;67.81;99227.94;5013722;28;40764;-81
2023/09/15 01:04:44;;;;;;;2.00;1.40;;;;;;;13.70;68.11;99234.22;5013846;28;41906;-82
2023/09/15 01:07:12;;;;;;;1.90;1.63;;;;;;;13.55;68.67;99208.66;4996918;28;43176;-80
2023/09/15 01:09:40;;;;;;;2.53;1.63;;;;;;;13.67;69.83;99223.78;4997070;28;41166;-81
2023/09/15 01:12:08;;;;;;;4.03;2.37;;;;;;;13.53;71.06;99194.59;4996649;28;40211;-81
2023/09/15 01:14:36;;;;;;;2.20;1.73;;;;;;;13.58;70.37;99214.63;5018018;28;41017;-81
2023/09/15 01:17:10;;;;;;;4.00;2.57;;;;;;;13.66;70.48;99225.59;5001208;28;43200;-83
2023/09/15 01:19:54;;;;;;;2.50;2.13;;;;;;;13.67;70.61;99229.09;5001208;28;41230;-81
2023/09/15 01:23:08;;;;;;;2.87;2.63;;;;;;;13.64;70.34;99224.00;5000557;28;39972;-82
2023/09/15 01:26:07;;;;;;;3.17;2.13;;;;;;;13.62;70.43;99226.75;4937655;28;41748;-79
2023/09/15 01:29:02;;;;;;;2.33;2.00;;;;;;;13.62;70.78;99232.06;4935062;28;42751;-83
2023/09/15 01:31:31;;;;;;;2.00;1.80;;;;;;;13.60;69.82;99233.13;4980611;28;41398;-82
2023/09/15 01:33:59;;;;;;;2.27;1.90;;;;;;;13.56;69.69;99235.19;5000232;28;40990;-82
2023/09/15 01:36:27;;;;;;;3.13;1.80;;;;;;;13.54;69.66;99244.22;4999530;28;42264;-82
2023/09/15 01:38:54;;;;;;;2.03;1.77;;;;;;;13.51;69.66;99244.41;5015930;28;43120;-81
2023/09/15 01:41:23;;;;;;;2.80;1.73;;;;;;;13.47;69.36;99237.63;4999314;28;42940;-81
2023/09/15 01:43:53;;;;;;;2.00;1.80;;;;;;;13.41;70.14;99230.91;4983395;28;40162;-81
2023/09/15 01:46:23;;;;;;;1.83;1.50;;;;;;;13.41;69.55;99238.03;4999348;28;41507;-83
2023/09/15 01:48:56;;;;;;;2.40;2.20;;;;;;;13.38;70.04;99232.91;4999721;28;43380;-80
2023/09/15 01:51:25;;;;;;;2.60;2.10;;;;;;;13.38;71.29;99232.91;4999519;28;41573;-82
2023/09/15 01:53:53;;;;;;;2.40;2.10;;;;;;;13.36;71.66;99227.69;4999840;28;39995;-80
2023/09/15 01:56:23;;;;;;;3.37;2.30;;;;;;;13.35;70.98;99228.66;5015991;28;41870;-80
2023/09/15 01:58:51;;;;;;;2.20;2.00;;;;;;;13.35;70.66;99231.31;5016491;28;42869;-82
2023/09/15 02:01:19;;;;;;;2.67;1.93;;;;;;;13.36;70.66;99232.16;5015943;28;42376;-82
2023/09/15 02:03:47;;;;;;;1.80;1.63;;;;;;;13.34;70.66;99232.28;4999552;28;40057;-82
2023/09/15 02:06:16;;;;;;;2.30;2.03;;;;;;;13.33;70.28;99229.72;5015988;28;41710;-79
2023/09/15 02:08:44;;;;;;;3.63;2.03;;;;;;;13.12;70.34;99198.25;5016029;28;42732;-82
2023/09/15 02:11:12;;;;;;;2.20;1.83;;;;;;;13.29;70.06;99224.59;5033418;28;42361;-80
2023/09/15 02:13:41;;;;;;;1.80;1.67;;;;;;;13.27;70.22;99226.50;5000154;28;39707;-82
2023/09/15 02:16:09;;;;;;;2.60;2.27;;;;;;;13.27;70.36;99229.16;5016635;28;41805;-80
2023/09/15 02:18:36;;;;;;;2.37;1.97;;;;;;;13.25;70.03;99223.09;5016666;28;42439;-79
2023/09/15 02:21:04;;;;;;;2.77;2.27;;;;;;;13.22;70.53;99228.66;5033888;28;43483;-81
2023/09/15 02:23:34;;;;;;;4.10;2.27;;;;;;;13.22;70.51;99228.66;5016435;28;41008;-79
2023/09/15 02:26:03;;;;;;;2.43;2.00;;;;;;;13.11;70.69;99208.97;5016179;28;40687;-80
2023/09/15 02:28:31;;;;;;;3.13;1.97;;;;;;;13.20;70.65;99229.69;5016836;28;42662;-80
2023/09/15 02:30:58;;;;;;;2.47;2.13;;;;;;;13.17;70.69;99230.75;5000341;28;41146;-83
2023/09/15 02:33:26;;;;;;;2.37;2.17;;;;;;;13.16;70.66;99229.03;4999970;28;39594;-82
2023/09/15 02:35:53;;;;;;;3.53;2.70;;;;;;;13.15;70.91;99234.47;5016119;28;42722;-82
2023/09/15 02:38:21;;;;;;;2.73;2.47;;;;;;;13.14;70.84;99235.38;4997994;28;42864;-80
2023/09/15 02:40:50;;;;;;;2.80;2.33;;;;;;;13.08;70.59;99226.03;4998737;28;40856;-83
2023/09/15 02:43:17;;;;;;;2.87;2.57;;;;;;;13.10;70.47;99234.75;4998854;28;40174;-82
2023/09/15 02:45:45;;;;;;;4.07;2.30;;;;;;;12.95;70.51;99203.88;4998927;28;40648;-81
2023/09/15 02:48:15;;;;;;;2.37;2.17;;;;;;;13.05;70.89;99223.56;4998520;28;41737;-83
2023/09/15 02:50:43;;;;;;;2.77;2.07;;;;;;;13.04;70.79;99226.31;4998638;28;41109;-82
2023/09/15 02:53:11;;;;;;;2.77;2.27;;;;;;;12.95;70.86;99211.84;4998675;28;40209;-80
2023/09/15 02:55:38;;;;;;;1.97;1.87;;;;;;;12.95;71.04;99211.84;4998709;28;42570;-81
2023/09/15 02:58:08;;;;;;;4.50;3.27;;;;;;;13.01;70.95;99216.72;4998455;28;43010;-83
2023/09/15 03:00:35;;;;;;;4.57;2.87;;;;;;;12.82;71.48;99182.56;4998294;28;42495;-81
2023/09/15 03:03:03;;;;;;;3.87;3.47;;;;;;;12.99;71.84;99215.97;4998285;28;39782;-82
2023/09/15 03:05:31;;;;;;;3.50;3.20;;;;;;;12.89;72.14;99194.47;4998582;28;40927;-83
2023/09/15 03:07:59;;;;;;;4.83;4.20;;;;;;;12.99;73.00;99208.00;5014910;28;42793;-80
2023/09/15 03:10:27;;;;;;;4.33;3.73;;;;;;;12.99;72.72;99205.34;4998490;28;41244;-81
2023/09/15 03:12:54;;;;;;;4.50;3.60;;;;;;;12.99;72.44;99205.34;4999233;28;40217;-80
2023/09/15 03:15:24;;;;;;;5.90;4.93;;;;;;;12.99;73.63;99202.69;4999496;28;40735;-83
2023/09/15 03:17:52;;;;;;;5.53;4.40;;;;;;;12.99;73.44;99210.66;5015817;28;42802;-79
2023/09/15 03:20:21;;;;;;;4.97;4.47;;;;;;;12.99;73.71;99205.34;5016045;28;42508;-80
2023/09/15 03:22:48;;;;;;;4.70;3.90;;;;;;;12.98;73.64;99201.00;4999525;28;41321;-81
2023/09/15 03:25:16;;;;;;;4.70;4.20;;;;;;;12.90;73.55;99195.31;4999265;28;40987;-81
2023/09/15 03:27:43;;;;;;;6.47;4.43;;;;;;;12.98;74.32;99203.66;4999374;28;41571;-83
2023/09/15 03:30:12;;;;;;;5.50;5.00;;;;;;;12.97;74.63;99204.63;5015884;28;41161;-82
2023/09/15 03:32:41;;;;;;;5.70;4.70;;;;;;;12.88;74.91;99192.78;5016074;28;40911;-80
2023/09/15 03:35:09;;;;;;;7.13;5.10;;;;;;;12.98;75.11;99208.97;5014688;28;40754;-82
2023/09/15 03:37:37;;;;;;;5.33;4.83;;;;;;;12.97;74.41;99217.91;4997837;28;41421;-81
2023/09/15 03:40:08;;;;;;;4.67;4.17;;;;;;;12.94;74.22;99218.09;4999933;28;43005;-79
2023/09/15 03:42:36;;;;;;;4.80;4.00;;;;;;;12.92;73.71;99217.34;5011642;28;40832;-79
2023/09/15 03:45:04;;;;;;;4.77;4.17;;;;;;;12.77;73.48;99191.78;5006392;28;41692;-81
2023/09/15 03:47:32;;;;;;;6.23;4.50;;;;;;;12.87;74.76;99211.47;5014468;28;42723;-82
2023/09/15 03:50:02;;;;;;;3.90;3.33;;;;;;;12.83;74.01;99212.66;4998394;28;41192;-80
2023/09/15 03:52:33;;;;;;;5.80;3.80;;;;;;;12.80;74.33;99211.03;5011374;28;41165;-79
2023/09/15 03:55:02;;;;;;;4.40;3.83;;;;;;;12.79;74.15;99213.78;4997992;28;41106;-80
2023/09/15 03:57:30;;;;;;;4.23;3.30;;;;;;;12.77;73.72;99218.34;5014370;28;42708;-80
2023/09/15 03:59:58;;;;;;;4.80;4.13;;;;;;;12.65;73.50;99200.56;4997648;28;42242;-81
2023/09/15 04:02:25;;;;;;;3.47;3.17;;;;;;;12.74;73.67;99218.53;5014214;28;40584;-81
2023/09/15 04:04:53;;;;;;;4.07;3.67;;;;;;;12.50;73.62;99181.16;5031906;28;42059;-79
2023/09/15 04:07:22;;;;;;;5.33;4.50;;;;;;;12.70;73.25;99225.03;4997781;28;42762;-81
2023/09/15 04:09:49;;;;;;;4.57;4.13;;;;;;;12.60;73.64;99211.50;4997728;28;41226;-82
2023/09/15 04:12:17;;;;;;;4.87;4.10;;;;;;;12.65;73.37;99221.81;5014211;28;41114;-80
2023/09/15 04:14:44;;;;;;;4.03;3.60;;;;;;;12.63;73.33;99223.72;5015286;28;40754;-82
2023/09/15 04:17:12;;;;;;;3.93;3.50;;;;;;;12.49;73.16;99206.00;5015016;28;42663;-83
2023/09/15 04:19:39;;;;;;;4.50;3.73;;;;;;;12.45;73.10;99194.75;4998469;28;42792;-81
2023/09/15 04:22:07;;;;;;;5.13;4.10;;;;;;;12.55;73.16;99214.44;4998667;28;39705;-83
2023/09/15 04:24:36;;;;;;;4.80;3.97;;;;;;;12.54;72.92;99220.72;4998602;28;40608;-80
2023/09/15 04:27:04;;;;;;;4.00;3.60;;;;;;;12.46;73.28;99207.09;5014743;28;42836;-79
2023/09/15 04:29:31;;;;;;;4.37;3.97;;;;;;;12.45;72.79;99210.69;4998064;28;42276;-80
2023/09/15 04:32:00;;;;;;;3.93;3.53;;;;;;;12.41;72.93;99203.84;4998495;28;39986;-80
2023/09/15 04:34:27;;;;;;;4.50;3.70;;;;;;;12.46;72.82;99220.38;5007025;28;41672;-81
2023/09/15 04:36:55;;;;;;;6.00;3.50;;;;;;;12.43;72.90;99228.53;5014749;28;43625;-81
2023/09/15 04:39:22;;;;;;;3.10;2.80;;;;;;;12.39;72.97;99228.81;5014053;28;42218;-79
2023/09/15 04:41:51;;;;;;;3.73;3.40;;;;;;;12.34;72.96;99229.13;4997192;28;41444;-81
2023/09/15 04:44:19;;;;;;;4.43;3.80;;;;;;;12.31;73.17;99218.69;4996566;28;43392;-81
2023/09/15 04:46:47;;;;;;;5.37;4.10;;;;;;;12.31;73.00;99229.31;4996870;28;41758;-80
2023/09/15 04:49:14;;;;;;;4.03;3.60;;;;;;;12.20;72.78;99207.91;5013655;28;42704;-82
2023/09/15 04:51:42;;;;;;;3.83;3.50;;;;;;;12.29;73.07;99225.88;4996950;28;39838;-82
2023/09/15 04:54:10;;;;;;;3.93;3.53;;;;;;;12.27;72.88;99225.13;4996689;28;41709;-82
2023/09/15 04:56:37;;;;;;;4.40;3.70;;;;;;;12.25;72.56;99221.72;4996707;28;43157;-82
2023/09/15 04:59:15;;;;;;;4.60;3.80;;;;;;;12.16;72.47;99209.88;4996523;28;42221;-83
2023/09/15 05:01:43;;;;;;;4.00;3.60;;;;;;;12.21;72.81;99222.88;4997054;28;41497;-82
2023/09/15 05:04:11;;;;;;;4.10;3.60;;;;;;;12.19;72.39;99230.09;4996474;28;41801;-82
2023/09/15 05:06:39;;;;;;;4.10;3.70;;;;;;;12.15;72.57;99229.41;4996087;28;42479;-74
2023/09/15 05:09:09;;;;;;;4.77;3.73;;;;;;;12.14;72.28;99232.16;5011800;28;42280;-79
2023/09/15 05:11:37;;;;;;;3.97;3.30;;;;;;;12.13;72.61;99233.09;4975789;28;40111;-75
2023/09/15 05:14:06;;;;;;;3.33;2.93;;;;;;;12.12;72.39;99226.09;4976549;28;41960;-77
2023/09/15 05:16:35;;;;;;;3.57;3.27;;;;;;;12.13;72.32;99228.66;4997109;28;42793;-76
2023/09/15 05:19:02;;;;;;;6.67;3.40;;;;;;;12.14;71.95;99227.72;5012686;28;42433;-83
2023/09/15 05:21:30;;;;;;;3.90;3.50;;;;;;;12.15;72.29;99226.75;5013113;28;42020;-79
2023/09/15 05:23:57;;;;;;;3.10;2.80;;;;;;;12.05;72.05;99208.84;4996686;28;41170;-78
2023/09/15 05:26:25;;;;;;;3.77;3.27;;;;;;;12.05;72.04;99211.50;4988096;28;41705;-78
2023/09/15 05:28:51;;;;;;;4.57;3.77;;;;;;;12.12;72.20;99218.97;4996822;28;41171;-77
2023/09/15 05:31:25;;;;;;;3.57;3.13;;;;;;;12.22;72.14;99232.56;5013098;28;41360;-80
2023/09/15 05:33:53;;;;;;;4.17;3.17;;;;;;;12.24;72.28;99226.16;5012976;28;40717;-80
2023/09/15 05:36:21;;;;;;;4.17;3.53;;;;;;;12.28;72.27;99231.28;4996956;28;42117;-81
2023/09/15 05:38:49;;;;;;;3.83;3.40;;;;;;;12.30;72.14;99224.94;4995723;28;42544;-76
2023/09/15 05:41:16;;;;;;;4.07;3.67;;;;;;;12.34;72.45;99223.81;4995650;28;40060;-80
2023/09/15 05:43:45;;;;;;;5.37;4.13;;;;;;;12.37;72.18;99223.59;4994347;28;42164;-78
2023/09/15 05:46:12;;;;;;;4.23;3.40;;;;;;;12.39;72.21;99221.69;4995625;28;41905;-79
2023/09/15 05:48:41;;;;;;;5.83;4.10;;;;;;;12.52;72.17;99227.91;5011500;28;42492;-76
2023/09/15 05:51:09;;;;;;;4.50;4.10;;;;;;;12.57;72.92;99215.22;4995234;28;41396;-76
2023/09/15 05:53:36;;;;;;;4.87;4.37;;;;;;;12.61;73.02;99215.00;5010933;28;40683;-76
2023/09/15 05:56:04;;;;;;;5.03;4.30;;;;;;;12.71;73.01;99226.75;5011226;28;41419;-78
2023/09/15 05:58:31;;;;;;;5.60;4.43;;;;;;;12.78;72.53;99222.72;5029430;28;42291;-74
2023/09/15 06:00:59;;;;;;;3.97;3.40;;;;;;;12.85;72.92;99224.03;5014831;28;41668;-75
2023/09/15 06:03:26;;;;;;;5.23;4.73;;;;;;;12.76;72.92;99193.59;4997512;28;40868;-75
2023/09/15 06:05:55;;;;;;;5.17;4.60;;;;;;;13.05;72.89;99223.56;5014567;28;43514;-76
2023/09/15 06:08:22;;;;;;;5.17;4.53;;;;;;;13.17;72.64;99227.22;5014481;28;42221;-78
2023/09/15 06:10:50;;;;;;;4.13;3.67;;;;;;;13.31;72.37;99227.16;4998655;28;39967;-77
2023/09/15 06:13:17;;;;;;;4.70;4.13;;;;;;;13.36;71.94;99214.38;5014993;28;42674;-77
2023/09/15 06:15:45;;;;;;;5.00;4.40;;;;;;;13.57;72.04;99223.56;4999349;28;41487;-79
2023/09/15 06:18:12;;;;;;;5.23;4.03;;;;;;;13.62;71.68;99215.25;5015714;28;43098;-76
2023/09/15 06:20:40;;;;;;;5.50;3.97;;;;;;;13.84;71.98;99219.97;5015775;28;41123;-75
2023/09/15 06:23:09;;;;;;;7.60;5.03;;;;;;;14.09;71.90;99232.41;5015838;28;43033;-81
2023/09/15 06:25:36;;;;;;;5.77;4.70;;;;;;;14.13;71.97;99207.22;4999466;28;42915;-80
2023/09/15 06:28:04;;;;;;;6.00;5.10;;;;;;;14.38;71.99;99226.66;5033920;28;42203;-82
2023/09/15 06:30:31;;;;;;;5.90;5.07;;;;;;;14.35;71.96;99199.38;5015810;28;39841;-82
2023/09/15 06:32:59;;;;;;;5.47;4.93;;;;;;;14.67;72.07;99226.41;4998648;28;41729;-83
2023/09/15 06:35:26;;;;;;;6.27;5.13;;;;;;;14.78;71.55;99218.47;4990988;28;41587;-82
2023/09/15 06:37:54;;;;;;;5.90;4.77;;;;;;;14.96;71.83;99221.59;5015191;28;43678;-86
2023/09/15 06:40:22;;;;;;;5.93;4.87;;;;;;;15.07;71.50;99208.31;4997720;28;40232;-82
2023/09/15 06:42:50;;;;;;;5.63;5.03;;;;;;;15.15;71.47;99195.22;4998537;28;40728;-86
2023/09/15 06:45:17;;;;;;;6.60;4.63;;;;;;;15.40;71.50;99210.22;5014483;28;42929;-83
2023/09/15 06:47:45;;;;;;;6.37;4.60;;;;;;;15.44;71.29;99193.00;4998784;28;41476;-83
2023/09/15 06:50:13;;;;;;;5.80;5.30;;;;;;;15.69;71.21;99208.00;5014756;28;41207;-86
2023/09/15 06:52:40;;;;;;;5.20;4.27;;;;;;;15.90;70.51;99222.34;5032509;28;42088;-82
2023/09/15 06:55:08;;;;;;;7.23;5.30;;;;;;;16.07;70.70;99200.47;4981326;28;44740;-83
2023/09/15 06:57:37;;;;;;;6.53;5.47;;;;;;;16.43;69.78;99217.25;4998604;28;41665;-83
2023/09/15 07:00:05;;;;;;;6.90;5.93;;;;;;;16.76;69.66;99229.72;5014729;28;41290;-87
2023/09/15 07:02:32;;;;;;;6.70;5.37;;;;;;;17.05;69.52;99235.34;5014363;28;40714;-80
2023/09/15 07:05:00;;;;;;;4.67;4.23;;;;;;;17.51;68.58;99235.84;5014078;28;41777;-81
2023/09/15 07:07:27;;;;;;;5.13;4.60;;;;;;;18.28;66.56;99236.31;5014491;28;42409;-82
2023/09/15 07:09:55;;;;;;;4.87;4.40;;;;;;;19.30;63.75;99255.72;5030969;28;41686;-83
2023/09/15 07:12:22;;;;;;;5.07;4.57;;;;;;;19.91;62.16;99256.25;5017185;28;41683;-80
2023/09/15 07:14:51;;;;;;;7.37;5.53;;;;;;;20.27;61.27;99251.09;5025347;28;43146;-78
2023/09/15 07:17:20;;;;;;;5.50;4.73;;;;;;;20.51;59.27;99250.59;5010871;28;41883;-88
2023/09/15 07:19:47;;;;;;;4.40;4.00;;;;;;;20.64;58.80;99253.78;4999584;28;40370;-88
2023/09/15 07:22:14;;;;;;;5.80;4.27;;;;;;;20.80;57.84;99260.19;5015578;28;42123;-87
2023/09/15 07:24:42;;;;;;;5.60;4.27;;;;;;;21.25;57.75;99266.59;5015666;28;41938;-85
2023/09/15 07:27:10;;;;;;;4.93;4.40;;;;;;;21.60;56.62;99266.56;4999191;28;42414;-86
2023/09/15 07:29:37;;;;;;;4.87;4.37;;;;;;;21.74;56.05;99271.41;4999347;28;40047;-87
2023/09/15 07:32:07;;;;;;;4.83;4.13;;;;;;;21.95;55.21;99275.59;4999347;28;41853;-85
2023/09/15 07:34:35;;;;;;;4.30;3.90;;;;;;;22.55;54.12;99288.13;4998991;28;44474;-82
2023/09/15 07:37:05;;;;;;;6.20;4.53;;;;;;;23.34;51.96;99297.72;4998967;28;41443;-83
2023/09/15 07:39:33;;;;;;;7.13;3.93;;;;;;;23.96;49.86;99308.94;5015134;28;40733;-84
2023/09/15 07:42:01;;;;;;;4.53;4.10;;;;;;;24.42;48.36;99312.78;4998335;28;20233;-80
2023/09/15 07:44:29;;;;;;;4.63;4.20;;;;;;;24.99;47.22;99290.91;5013339;28;43310;-83
2023/09/15 07:46:58;;;;;;;3.90;3.60;;;;;;;26.00;45.54;99316.00;5013665;28;41499;-86
2023/09/15 07:49:27;;;;;;;5.17;4.40;;;;;;;27.58;40.92;99331.00;4997774;28;40143;-85
2023/09/15 07:51:55;;;;;;;4.23;3.93;;;;;;;29.65;38.23;99348.41;4997603;28;40803;-82
2023/09/15 07:54:22;;;;;;;3.70;3.43;;;;;;;30.28;36.51;99332.53;5013616;28;42114;-82
2023/09/15 07:56:50;;;;;;;4.13;3.83;;;;;;;30.31;36.47;99328.50;5013772;28;41246;-82
2023/09/15 07:59:17;;;;;;;3.93;3.53;;;;;;;30.42;35.03;99349.72;5013551;28;42055;-79
2023/09/15 08:01:45;;;;;;;3.57;3.23;;;;;;;29.63;36.58;99342.31;5013580;28;41755;-83
2023/09/15 08:04:12;;;;;;;3.87;3.53;;;;;;;28.75;37.98;99324.03;5013682;28;42011;-78
2023/09/15 08:06:41;;;;;;;3.40;3.10;;;;;;;27.99;38.95;99317.59;5013637;28;42254;-82
2023/09/15 08:09:09;;;;;;;4.20;3.40;;;;;;;27.42;40.12;99307.59;5013756;28;40710;-80
2023/09/15 08:11:38;;;;;;;3.77;3.47;;;;;;;26.81;41.08;99290.72;5013746;28;42788;-84
2023/09/15 08:14:05;;;;;;;4.37;3.63;;;;;;;26.99;41.76;99306.66;4978738;28;41983;-84
2023/09/15 08:16:33;;;;;;;4.00;3.63;;;;;;;27.21;41.33;99310.25;4995195;28;42635;-82
2023/09/15 08:19:01;;;;;;;3.43;3.13;;;;;;;27.14;42.45;99293.03;5014340;28;41667;-83
2023/09/15 08:21:28;;;;;;;3.67;3.37;;;;;;;27.19;42.17;99282.44;5031880;28;41752;-85
2023/09/15 08:23:58;;;;;;;3.57;3.27;;;;;;;27.98;40.82;99282.38;4996359;28;43244;-84
2023/09/15 08:26:26;;;;;;;3.83;3.50;;;;;;;29.23;38.77;99299.53;5013308;28;41336;-86
2023/09/15 08:28:53;;;;;;;4.13;3.83;;;;;;;30.24;36.90;99323.06;5012912;28;41901;-85
2023/09/15 08:31:21;;;;;;;3.90;3.50;;;;;;;30.55;35.66;99308.72;5030889;28;41798;-82
2023/09/15 08:33:48;;;;;;;3.40;3.10;;;;;;;30.92;35.96;99312.63;5012787;28;43439;-88
2023/09/15 08:36:16;;;;;;;3.73;3.43;;;;;;;31.80;34.63;99331.19;5013629;28;41188;-88
2023/09/15 08:38:44;;;;;;;3.63;3.33;;;;;;;33.02;32.26;99336.84;5012808;28;39964;-84
2023/09/15 08:41:20;;;;;;;4.22;3.83;;;;;;;33.96;30.77;99349.16;4996799;28;40869;-82
2023/09/15 08:43:48;;;;;;;3.67;3.22;;;;;;;34.02;30.45;99352.88;4996304;28;41773;-86
2023/09/15 08:46:16;;;;;;;3.60;3.30;;;;;;;34.37;30.49;99340.03;5013080;28;41398;-82
2023/09/15 08:48:49;;;;;;;3.13;2.83;;;;;;;35.88;28.86;99349.94;5012910;28;39911;-79
2023/09/15 08:51:17;;;;;;;3.42;3.13;;;;;;;37.81;26.06;99352.81;5012757;28;40443;-82
2023/09/15 08:53:46;;;;;;;3.67;2.22;;;;;;;39.76;24.66;99365.78;5012721;28;43259;-80
2023/09/15 08:56:16;;;;;;;2.70;2.50;;;;;;;41.49;23.17;99350.63;4996540;28;42243;-84
2023/09/15 08:58:43;;;;;;;2.88;2.67;;;;;;;42.87;21.61;99354.06;5013058;28;40402;-85
2023/09/15 09:01:13;;;;;;;2.60;2.40;;;;;;;43.93;20.50;99359.41;5012892;28;41079;-82
2023/09/15 09:03:40;;;;;;;3.15;2.70;;;;;;;44.64;19.69;99361.88;5012499;28;42934;-83
2023/09/15 09:06:10;;;;;;;2.42;2.25;;;;;;;44.34;19.53;99354.84;4996551;28;41623;-81
2023/09/15 09:08:42;;;;;;;3.08;2.80;;;;;;;44.10;19.49;99340.19;4995998;28;39288;-80
2023/09/15 09:11:10;;;;;;;2.40;2.20;;;;;;;43.53;19.91;99352.44;5012360;28;41005;-83
2023/09/15 09:13:39;;;;;;;2.25;2.10;;;;;;;43.07;20.59;99336.28;5012890;28;42795;-84
2023/09/15 09:16:07;;;;;;;2.67;2.47;;;;;;;43.09;20.67;99330.41;5031448;28;42489;-82
2023/09/15 09:18:35;;;;;;;3.03;2.83;;;;;;;41.94;22.07;99324.47;4997237;28;40345;-84
2023/09/15 09:21:04;;;;;;;2.50;2.35;;;;;;;40.51;22.06;99319.78;5013665;28;40650;-83
2023/09/15 09:23:32;;;;;;;2.60;2.40;;;;;;;39.19;23.32;99299.34;4996796;28;43305;-84
2023/09/15 09:26:00;;;;;;;3.63;2.60;;;;;;;39.06;23.13;99304.28;4995574;28;41322;-85
2023/09/15 09:28:28;;;;;;;3.30;3.00;;;;;;;38.45;24.09;99303.84;5012191;28;40854;-81
2023/09/15 09:30:57;;;;;;;2.95;2.75;;;;;;;37.38;25.25;99293.72;4995720;28;42007;-82
2023/09/15 09:33:24;;;;;;;3.42;3.13;;;;;;;36.45;25.99;99285.56;5012881;28;42093;-81
2023/09/15 09:35:52;;;;;;;3.03;2.83;;;;;;;35.92;27.53;99276.69;5015572;28;42520;-79
2023/09/15 09:38:19;;;;;;;2.70;2.50;;;;;;;35.31;28.17;99263.72;5015550;28;39840;-82
2023/09/15 09:40:47;;;;;;;3.10;2.90;;;;;;;34.81;28.53;99252.50;4998460;28;42484;-83
2023/09/15 09:43:15;;;;;;;2.60;2.40;;;;;;;34.48;29.13;99259.47;4999057;28;44907;-86
2023/09/15 09:45:49;;;;;;;3.17;2.97;;;;;;;33.66;30.17;99247.50;5015038;28;41316;-84
2023/09/15 09:48:18;;;;;;;2.73;2.53;;;;;;;33.56;30.74;99243.66;4999272;28;41439;-80
2023/09/15 09:50:49;;;;;;;3.20;2.83;;;;;;;33.97;30.26;99229.06;5014920;28;41181;-80
2023/09/15 09:53:25;;;;;;;3.17;2.90;;;;;;;33.91;30.10;99216.25;5012565;28;42714;-85
2023/09/15 09:55:53;;;;;;;2.60;2.40;;;;;;;33.99;30.24;99235.16;4998976;28;41421;-82
2023/09/15 09:58:22;;;;;;;3.13;2.93;;;;;;;33.44;30.21;99208.75;5015513;28;41141;-85
2023/09/15 10:00:51;;;;;;;3.20;2.87;;;;;;;33.05;31.58;99215.63;5033001;28;42067;-83
2023/09/15 10:03:21;;;;;;;2.63;2.43;;;;;;;33.09;31.71;99210.53;5032467;28;43333;-80
2023/09/15 10:05:49;;;;;;;3.20;2.90;;;;;;;33.82;30.30;99205.63;4998877;28;42137;-89
2023/09/15 10:08:17;;;;;;;2.90;2.67;;;;;;;34.40;29.74;99218.56;4998505;28;41146;-82
2023/09/15 10:10:49;;;;;;;3.17;2.88;;;;;;;34.40;29.56;99223.22;5032863;28;41902;-82
2023/09/15 10:13:17;;;;;;;5.00;2.78;;;;;;;34.30;30.28;99221.09;5012742;28;43308;-81
2023/09/15 10:15:46;;;;;;;3.13;2.67;;;;;;;33.90;31.60;99196.19;5015946;28;42218;-80
2023/09/15 10:18:16;;;;;;;2.67;2.47;;;;;;;33.72;31.58;99194.38;5016165;28;41851;-82
2023/09/15 10:20:48;;;;;;;3.40;2.47;;;;;;;33.98;31.53;99192.28;5016060;28;41869;-82
2023/09/15 10:23:16;;;;;;;3.30;3.00;;;;;;;34.22;30.50;99210.44;4980024;28;43571;-83
2023/09/15 10:25:48;;;;;;;3.38;3.17;;;;;;;34.87;30.08;99215.72;4995959;28;41361;-85
2023/09/15 10:28:17;;;;;;;3.67;2.97;;;;;;;35.91;29.26;99203.34;5023032;28;40410;-84
2023/09/15 10:30:45;;;;;;;3.00;2.80;;;;;;;37.54;27.12;99230.31;5019249;28;40687;-87
2023/09/15 10:33:12;;;;;;;3.17;2.65;;;;;;;38.92;24.83;99242.13;5017961;28;43552;-86
2023/09/15 10:35:43;;;;;;;2.58;2.33;;;;;;;40.14;23.96;99234.03;5014810;28;42560;-82
2023/09/15 10:38:12;;;;;;;2.47;2.28;;;;;;;41.04;22.73;99243.25;5015385;28;40048;-85
2023/09/15 10:40:47;;;;;;;3.10;2.58;;;;;;;41.42;22.84;99238.06;5014663;28;42208;-84
2023/09/15 10:43:17;;;;;;;2.80;2.50;;;;;;;41.35;23.01;99243.94;5012054;28;43459;-87
2023/09/15 10:45:55;;;;;;;2.97;2.70;;;;;;;40.67;23.28;99193.69;5014777;28;41537;-85
2023/09/15 10:48:23;;;;;;;2.90;2.70;;;;;;;40.25;23.66;99232.06;5011521;28;40920;-85
2023/09/15 10:50:51;;;;;;;3.22;3.00;;;;;;;39.18;23.98;99223.69;5014750;28;41085;-84
2023/09/15 10:53:21;;;;;;;3.58;2.95;;;;;;;38.56;24.91;99224.53;4997619;28;42692;-79
2023/09/15 10:55:48;;;;;;;2.80;2.60;;;;;;;38.53;25.59;99214.00;5014393;28;41377;-80
2023/09/15 10:58:17;;;;;;;3.28;2.97;;;;;;;38.93;25.09;99218.03;5013861;28;42147;-81
2023/09/15 11:00:45;;;;;;;3.40;3.10;;;;;;;39.61;24.24;99218.78;5031991;28;43030;-80
2023/09/15 11:03:14;;;;;;;3.40;2.42;;;;;;;39.50;24.75;99204.06;5013983;28;41781;-88
2023/09/15 11:05:42;;;;;;;4.65;2.88;;;;;;;39.21;24.83;99198.16;5014049;28;42637;-83
2023/09/15 11:08:10;;;;;;;3.08;2.63;;;;;;;39.25;24.89;99199.31;5032103;28;40699;-85
2023/09/15 11:10:40;;;;;;;3.33;2.90;;;;;;;39.24;24.88;99203.19;4998107;28;41306;-85
2023/09/15 11:13:08;;;;;;;2.97;2.78;;;;;;;39.38;25.09;99187.69;5013932;28;42735;-83
2023/09/15 11:15:35;;;;;;;3.30;3.00;;;;;;;39.73;23.73;99194.38;5032778;28;43140;-81
2023/09/15 11:18:04;;;;;;;2.65;2.45;;;;;;;39.40;24.42;99179.94;5031935;28;41118;-79
2023/09/15 11:20:31;;;;;;;3.70;2.90;;;;;;;39.14;25.50;99170.75;4998273;28;40869;-78
2023/09/15 11:22:59;;;;;;;2.85;2.65;;;;;;;39.21;25.00;99170.47;5015155;28;43742;-87
2023/09/15 11:25:27;;;;;;;2.80;2.60;;;;;;;39.46;24.08;99176.06;5033339;28;42713;-86
2023/09/15 11:27:56;;;;;;;3.30;2.92;;;;;;;39.94;24.43;99179.38;4997452;28;39969;-82
2023/09/15 11:30:27;;;;;;;3.05;2.85;;;;;;;39.79;25.06;99176.63;4978758;28;40742;-82
2023/09/15 11:32:55;;;;;;;3.15;2.78;;;;;;;39.37;25.07;99166.59;4981220;28;43116;-83
2023/09/15 11:35:25;;;;;;;5.47;2.85;;;;;;;40.13;25.41;99160.22;5015140;28;41467;-81
2023/09/15 11:37:53;;;;;;;3.45;2.85;;;;;;;42.14;22.60;99159.31;5016230;28;40388;-84
2023/09/15 11:40:21;;;;;;;3.00;2.70;;;;;;;43.89;20.66;99190.91;5016256;28;42861;-83